sensor_id;sensor_type;location;lat;lon;timestamp;P1;durP1;ratioP1;P2;durP2;ratioP2
62633;SDS011;48704;50.534;6.442;2022-10-17T00:00:31;9.70;;;5.47;;
62633;SDS011;48704;50.534;6.442;2022-10-17T00:02:56;13.70;;;5.60;;
62633;SDS011;48704;50.534;6.442;2022-10-17T00:05:22;11.73;;;5.82;;
62633;SDS011;48704;50.534;6.442;2022-10-17T00:07:49;11.68;;;6.18;;
62633;SDS011;48704;50.534;6.442;2022-10-17T00:10:14;11.27;;;5.88;;
62633;SDS011;48704;50.534;6.442;2022-10-17T00:12:40;8.55;;;5.53;;
62633;SDS011;48704;50.534;6.442;2022-10-17T00:15:06;9.02;;;5.32;;
62633;SDS011;48704;50.534;6.442;2022-10-17T00:17:32;9.05;;;5.65;;
62633;SDS011;48704;50.534;6.442;2022-10-17T00:20:00;11.00;;;5.35;;
62633;SDS011;48704;50.534;6.442;2022-10-17T00:22:26;10.85;;;5.60;;
62633;SDS011;48704;50.534;6.442;2022-10-17T00:24:52;8.52;;;5.50;;
62633;SDS011;48704;50.534;6.442;2022-10-17T00:27:17;9.00;;;5.85;;
62633;SDS011;48704;50.534;6.442;2022-10-17T00:29:46;9.88;;;5.60;;
62633;SDS011;48704;50.534;6.442;2022-10-17T00:32:12;12.30;;;5.32;;
62633;SDS011;48704;50.534;6.442;2022-10-17T00:34:37;8.77;;;5.57;;
62633;SDS011;48704;50.534;6.442;2022-10-17T00:37:03;13.95;;;5.53;;
62633;SDS011;48704;50.534;6.442;2022-10-17T00:39:28;7.95;;;5.55;;
62633;SDS011;48704;50.534;6.442;2022-10-17T00:41:53;12.50;;;6.40;;
62633;SDS011;48704;50.534;6.442;2022-10-17T00:46:53;10.75;;;6.47;;
62633;SDS011;48704;50.534;6.442;2022-10-17T00:49:19;9.98;;;5.38;;
62633;SDS011;48704;50.534;6.442;2022-10-17T00:51:48;10.02;;;4.80;;
62633;SDS011;48704;50.534;6.442;2022-10-17T00:54:18;9.98;;;4.97;;
62633;SDS011;48704;50.534;6.442;2022-10-17T00:56:47;10.00;;;5.53;;
62633;SDS011;48704;50.534;6.442;2022-10-17T00:59:13;11.82;;;5.32;;
62633;SDS011;48704;50.534;6.442;2022-10-17T01:01:40;10.05;;;4.88;;
62633;SDS011;48704;50.534;6.442;2022-10-17T01:04:10;9.35;;;5.53;;
62633;SDS011;48704;50.534;6.442;2022-10-17T01:06:36;11.02;;;5.25;;
62633;SDS011;48704;50.534;6.442;2022-10-17T01:09:02;10.68;;;5.80;;
62633;SDS011;48704;50.534;6.442;2022-10-17T01:14:06;7.25;;;4.60;;
62633;SDS011;48704;50.534;6.442;2022-10-17T01:27:17;8.80;;;5.50;;
62633;SDS011;48704;50.534;6.442;2022-10-17T01:32:41;9.73;;;5.53;;
62633;SDS011;48704;50.534;6.442;2022-10-17T01:35:13;7.93;;;5.15;;
62633;SDS011;48704;50.534;6.442;2022-10-17T01:37:50;10.55;;;5.43;;
62633;SDS011;48704;50.534;6.442;2022-10-17T01:40:24;8.25;;;5.65;;
62633;SDS011;48704;50.534;6.442;2022-10-17T01:42:58;10.98;;;5.45;;
62633;SDS011;48704;50.534;6.442;2022-10-17T01:48:03;8.48;;;5.40;;
62633;SDS011;48704;50.534;6.442;2022-10-17T01:50:36;10.48;;;6.13;;
62633;SDS011;48704;50.534;6.442;2022-10-17T01:53:13;10.15;;;6.35;;
62633;SDS011;48704;50.534;6.442;2022-10-17T01:55:44;10.27;;;6.25;;
62633;SDS011;48704;50.534;6.442;2022-10-17T01:58:13;10.98;;;6.25;;
62633;SDS011;48704;50.534;6.442;2022-10-17T02:00:43;10.18;;;5.50;;
62633;SDS011;48704;50.534;6.442;2022-10-17T02:03:11;11.85;;;5.70;;
62633;SDS011;48704;50.534;6.442;2022-10-17T02:05:40;9.68;;;6.25;;
62633;SDS011;48704;50.534;6.442;2022-10-17T02:08:07;8.57;;;5.38;;
62633;SDS011;48704;50.534;6.442;2022-10-17T02:13:47;10.93;;;6.55;;
62633;SDS011;48704;50.534;6.442;2022-10-17T02:21:23;9.80;;;5.45;;
62633;SDS011;48704;50.534;6.442;2022-10-17T02:29:25;10.77;;;5.88;;
62633;SDS011;48704;50.534;6.442;2022-10-17T02:31:57;12.43;;;5.93;;
62633;SDS011;48704;50.534;6.442;2022-10-17T02:34:31;12.15;;;5.45;;
62633;SDS011;48704;50.534;6.442;2022-10-17T02:37:02;9.00;;;5.65;;
62633;SDS011;48704;50.534;6.442;2022-10-17T02:39:31;9.85;;;5.60;;
62633;SDS011;48704;50.534;6.442;2022-10-17T02:41:59;9.93;;;6.22;;
62633;SDS011;48704;50.534;6.442;2022-10-17T02:44:27;11.55;;;6.40;;
62633;SDS011;48704;50.534;6.442;2022-10-17T02:46:55;8.13;;;6.13;;
62633;SDS011;48704;50.534;6.442;2022-10-17T02:49:28;8.57;;;5.30;;
62633;SDS011;48704;50.534;6.442;2022-10-17T02:52:44;8.50;;;5.35;;
62633;SDS011;48704;50.534;6.442;2022-10-17T02:55:17;8.25;;;6.10;;
62633;SDS011;48704;50.534;6.442;2022-10-17T02:57:51;13.85;;;5.53;;
62633;SDS011;48704;50.534;6.442;2022-10-17T03:00:20;11.30;;;5.57;;
62633;SDS011;48704;50.534;6.442;2022-10-17T03:02:50;9.05;;;5.68;;
62633;SDS011;48704;50.534;6.442;2022-10-17T03:05:21;10.48;;;5.93;;
62633;SDS011;48704;50.534;6.442;2022-10-17T03:07:48;8.57;;;5.88;;
62633;SDS011;48704;50.534;6.442;2022-10-17T03:10:14;9.93;;;6.32;;
62633;SDS011;48704;50.534;6.442;2022-10-17T03:12:40;8.77;;;5.40;;
62633;SDS011;48704;50.534;6.442;2022-10-17T03:15:05;10.27;;;5.90;;
62633;SDS011;48704;50.534;6.442;2022-10-17T03:17:31;8.57;;;6.18;;
62633;SDS011;48704;50.534;6.442;2022-10-17T03:19:57;10.60;;;5.45;;
62633;SDS011;48704;50.534;6.442;2022-10-17T03:22:22;9.52;;;6.05;;
62633;SDS011;48704;50.534;6.442;2022-10-17T03:24:48;8.18;;;5.75;;
62633;SDS011;48704;50.534;6.442;2022-10-17T03:27:13;11.65;;;5.63;;
62633;SDS011;48704;50.534;6.442;2022-10-17T03:29:38;12.00;;;5.70;;
62633;SDS011;48704;50.534;6.442;2022-10-17T03:32:04;9.13;;;5.40;;
62633;SDS011;48704;50.534;6.442;2022-10-17T03:34:29;8.68;;;5.25;;
62633;SDS011;48704;50.534;6.442;2022-10-17T03:36:54;7.55;;;5.35;;
62633;SDS011;48704;50.534;6.442;2022-10-17T03:39:20;11.23;;;5.63;;
62633;SDS011;48704;50.534;6.442;2022-10-17T03:41:45;8.80;;;6.10;;
62633;SDS011;48704;50.534;6.442;2022-10-17T03:44:10;9.93;;;6.40;;
62633;SDS011;48704;50.534;6.442;2022-10-17T03:46:36;11.85;;;5.22;;
62633;SDS011;48704;50.534;6.442;2022-10-17T03:49:01;10.48;;;6.00;;
62633;SDS011;48704;50.534;6.442;2022-10-17T03:51:26;10.82;;;5.63;;
62633;SDS011;48704;50.534;6.442;2022-10-17T03:53:52;11.45;;;6.55;;
62633;SDS011;48704;50.534;6.442;2022-10-17T03:56:19;12.13;;;6.28;;
62633;SDS011;48704;50.534;6.442;2022-10-17T03:58:46;9.07;;;6.50;;
62633;SDS011;48704;50.534;6.442;2022-10-17T04:01:13;8.88;;;6.10;;
62633;SDS011;48704;50.534;6.442;2022-10-17T04:03:40;11.48;;;6.15;;
62633;SDS011;48704;50.534;6.442;2022-10-17T04:06:06;10.68;;;6.40;;
62633;SDS011;48704;50.534;6.442;2022-10-17T04:08:34;7.35;;;5.55;;
62633;SDS011;48704;50.534;6.442;2022-10-17T04:10:59;9.43;;;6.43;;
62633;SDS011;48704;50.534;6.442;2022-10-17T04:13:26;9.73;;;5.93;;
62633;SDS011;48704;50.534;6.442;2022-10-17T04:16:02;10.65;;;5.60;;
62633;SDS011;48704;50.534;6.442;2022-10-17T04:18:30;11.02;;;5.60;;
62633;SDS011;48704;50.534;6.442;2022-10-17T04:20:55;9.57;;;6.15;;
62633;SDS011;48704;50.534;6.442;2022-10-17T04:23:21;10.65;;;6.35;;
62633;SDS011;48704;50.534;6.442;2022-10-17T04:25:47;10.18;;;5.30;;
62633;SDS011;48704;50.534;6.442;2022-10-17T04:28:12;8.93;;;5.78;;
62633;SDS011;48704;50.534;6.442;2022-10-17T04:30:38;8.00;;;5.43;;
62633;SDS011;48704;50.534;6.442;2022-10-17T04:33:04;13.27;;;6.10;;
62633;SDS011;48704;50.534;6.442;2022-10-17T04:35:29;7.68;;;5.63;;
62633;SDS011;48704;50.534;6.442;2022-10-17T04:37:54;8.80;;;5.63;;
62633;SDS011;48704;50.534;6.442;2022-10-17T04:40:20;10.65;;;5.95;;
62633;SDS011;48704;50.534;6.442;2022-10-17T04:42:45;8.48;;;5.50;;
62633;SDS011;48704;50.534;6.442;2022-10-17T04:45:11;9.90;;;5.55;;
62633;SDS011;48704;50.534;6.442;2022-10-17T04:47:36;8.68;;;5.47;;
62633;SDS011;48704;50.534;6.442;2022-10-17T04:50:02;7.75;;;6.05;;
62633;SDS011;48704;50.534;6.442;2022-10-17T04:52:28;7.57;;;4.97;;
62633;SDS011;48704;50.534;6.442;2022-10-17T04:54:54;8.98;;;5.32;;
62633;SDS011;48704;50.534;6.442;2022-10-17T04:57:19;10.30;;;5.13;;
62633;SDS011;48704;50.534;6.442;2022-10-17T04:59:44;8.15;;;5.50;;
62633;SDS011;48704;50.534;6.442;2022-10-17T05:02:10;9.02;;;5.25;;
62633;SDS011;48704;50.534;6.442;2022-10-17T05:04:35;10.35;;;5.65;;
62633;SDS011;48704;50.534;6.442;2022-10-17T05:07:01;8.25;;;5.50;;
62633;SDS011;48704;50.534;6.442;2022-10-17T05:09:26;11.73;;;5.05;;
62633;SDS011;48704;50.534;6.442;2022-10-17T05:11:52;8.60;;;5.30;;
62633;SDS011;48704;50.534;6.442;2022-10-17T05:14:17;8.93;;;4.97;;
62633;SDS011;48704;50.534;6.442;2022-10-17T05:16:42;9.63;;;5.65;;
62633;SDS011;48704;50.534;6.442;2022-10-17T05:19:08;8.23;;;5.10;;
62633;SDS011;48704;50.534;6.442;2022-10-17T05:21:33;8.80;;;5.18;;
62633;SDS011;48704;50.534;6.442;2022-10-17T05:24:01;7.22;;;5.18;;
62633;SDS011;48704;50.534;6.442;2022-10-17T05:26:29;9.05;;;5.50;;
62633;SDS011;48704;50.534;6.442;2022-10-17T05:28:54;8.88;;;5.72;;
62633;SDS011;48704;50.534;6.442;2022-10-17T05:31:20;10.00;;;5.30;;
62633;SDS011;48704;50.534;6.442;2022-10-17T05:33:45;9.68;;;5.32;;
62633;SDS011;48704;50.534;6.442;2022-10-17T05:36:10;9.77;;;5.65;;
62633;SDS011;48704;50.534;6.442;2022-10-17T05:38:36;10.30;;;5.88;;
62633;SDS011;48704;50.534;6.442;2022-10-17T05:41:02;10.60;;;5.53;;
62633;SDS011;48704;50.534;6.442;2022-10-17T05:43:29;8.15;;;5.07;;
62633;SDS011;48704;50.534;6.442;2022-10-17T05:45:55;11.35;;;5.72;;
62633;SDS011;48704;50.534;6.442;2022-10-17T05:48:21;8.65;;;5.30;;
62633;SDS011;48704;50.534;6.442;2022-10-17T05:50:46;7.95;;;4.80;;
62633;SDS011;48704;50.534;6.442;2022-10-17T05:53:12;9.40;;;5.90;;
62633;SDS011;48704;50.534;6.442;2022-10-17T05:55:38;11.23;;;5.50;;
62633;SDS011;48704;50.534;6.442;2022-10-17T05:58:03;8.35;;;5.70;;
62633;SDS011;48704;50.534;6.442;2022-10-17T06:00:29;7.10;;;5.45;;
62633;SDS011;48704;50.534;6.442;2022-10-17T06:02:54;7.78;;;5.68;;
62633;SDS011;48704;50.534;6.442;2022-10-17T06:05:19;10.38;;;5.55;;
62633;SDS011;48704;50.534;6.442;2022-10-17T06:07:45;7.18;;;5.28;;
62633;SDS011;48704;50.534;6.442;2022-10-17T06:10:10;7.60;;;6.00;;
62633;SDS011;48704;50.534;6.442;2022-10-17T06:12:39;10.50;;;5.07;;
62633;SDS011;48704;50.534;6.442;2022-10-17T06:15:04;10.63;;;5.00;;
62633;SDS011;48704;50.534;6.442;2022-10-17T06:17:30;8.80;;;5.55;;
62633;SDS011;48704;50.534;6.442;2022-10-17T06:19:56;8.55;;;5.00;;
62633;SDS011;48704;50.534;6.442;2022-10-17T06:22:21;10.95;;;4.80;;
62633;SDS011;48704;50.534;6.442;2022-10-17T06:24:47;9.35;;;4.40;;
62633;SDS011;48704;50.534;6.442;2022-10-17T06:27:12;9.73;;;4.97;;
62633;SDS011;48704;50.534;6.442;2022-10-17T06:29:38;9.05;;;4.22;;
62633;SDS011;48704;50.534;6.442;2022-10-17T06:32:04;10.82;;;5.38;;
62633;SDS011;48704;50.534;6.442;2022-10-17T06:34:29;12.50;;;6.30;;
62633;SDS011;48704;50.534;6.442;2022-10-17T06:36:54;8.40;;;5.10;;
62633;SDS011;48704;50.534;6.442;2022-10-17T06:39:20;10.38;;;4.85;;
62633;SDS011;48704;50.534;6.442;2022-10-17T06:41:45;11.27;;;7.45;;
62633;SDS011;48704;50.534;6.442;2022-10-17T06:44:11;12.73;;;7.20;;
62633;SDS011;48704;50.534;6.442;2022-10-17T06:46:37;8.93;;;4.82;;
62633;SDS011;48704;50.534;6.442;2022-10-17T06:49:03;8.88;;;5.22;;
62633;SDS011;48704;50.534;6.442;2022-10-17T06:51:29;7.95;;;5.10;;
62633;SDS011;48704;50.534;6.442;2022-10-17T06:53:56;6.95;;;4.93;;
62633;SDS011;48704;50.534;6.442;2022-10-17T06:56:22;10.38;;;4.30;;
62633;SDS011;48704;50.534;6.442;2022-10-17T06:58:48;9.77;;;5.05;;
62633;SDS011;48704;50.534;6.442;2022-10-17T07:01:15;8.40;;;4.90;;
62633;SDS011;48704;50.534;6.442;2022-10-17T07:03:41;9.82;;;5.40;;
62633;SDS011;48704;50.534;6.442;2022-10-17T07:06:07;7.78;;;5.13;;
62633;SDS011;48704;50.534;6.442;2022-10-17T07:08:35;7.82;;;4.78;;
62633;SDS011;48704;50.534;6.442;2022-10-17T07:11:07;8.32;;;4.90;;
62633;SDS011;48704;50.534;6.442;2022-10-17T07:13:34;6.07;;;4.60;;
62633;SDS011;48704;50.534;6.442;2022-10-17T07:15:59;8.80;;;5.07;;
62633;SDS011;48704;50.534;6.442;2022-10-17T07:18:25;7.95;;;4.82;;
62633;SDS011;48704;50.534;6.442;2022-10-17T07:20:51;8.00;;;4.80;;
62633;SDS011;48704;50.534;6.442;2022-10-17T07:23:18;9.13;;;5.28;;
62633;SDS011;48704;50.534;6.442;2022-10-17T07:25:43;8.77;;;4.60;;
62633;SDS011;48704;50.534;6.442;2022-10-17T07:28:08;9.13;;;4.63;;
62633;SDS011;48704;50.534;6.442;2022-10-17T07:30:34;8.77;;;5.05;;
62633;SDS011;48704;50.534;6.442;2022-10-17T07:32:59;8.75;;;4.93;;
62633;SDS011;48704;50.534;6.442;2022-10-17T07:35:24;10.80;;;4.43;;
62633;SDS011;48704;50.534;6.442;2022-10-17T07:37:50;7.60;;;4.60;;
62633;SDS011;48704;50.534;6.442;2022-10-17T07:40:15;9.52;;;4.75;;
62633;SDS011;48704;50.534;6.442;2022-10-17T07:42:40;8.30;;;5.25;;
62633;SDS011;48704;50.534;6.442;2022-10-17T07:45:06;10.55;;;5.43;;
62633;SDS011;48704;50.534;6.442;2022-10-17T07:47:31;8.10;;;4.72;;
62633;SDS011;48704;50.534;6.442;2022-10-17T07:50:00;9.23;;;4.43;;
62633;SDS011;48704;50.534;6.442;2022-10-17T07:52:26;6.32;;;4.65;;
62633;SDS011;48704;50.534;6.442;2022-10-17T07:54:52;7.00;;;4.22;;
62633;SDS011;48704;50.534;6.442;2022-10-17T07:57:17;8.73;;;4.22;;
62633;SDS011;48704;50.534;6.442;2022-10-17T07:59:42;7.10;;;4.07;;
62633;SDS011;48704;50.534;6.442;2022-10-17T08:02:19;6.07;;;4.32;;
62633;SDS011;48704;50.534;6.442;2022-10-17T08:04:47;13.13;;;4.30;;
62633;SDS011;48704;50.534;6.442;2022-10-17T08:07:12;8.95;;;4.57;;
62633;SDS011;48704;50.534;6.442;2022-10-17T08:09:40;7.95;;;3.72;;
62633;SDS011;48704;50.534;6.442;2022-10-17T08:12:05;6.80;;;4.25;;
62633;SDS011;48704;50.534;6.442;2022-10-17T08:14:31;8.88;;;4.43;;
62633;SDS011;48704;50.534;6.442;2022-10-17T08:16:56;7.63;;;4.32;;
62633;SDS011;48704;50.534;6.442;2022-10-17T08:19:21;8.20;;;4.43;;
62633;SDS011;48704;50.534;6.442;2022-10-17T08:21:46;9.10;;;4.40;;
62633;SDS011;48704;50.534;6.442;2022-10-17T08:24:14;15.57;;;4.47;;
62633;SDS011;48704;50.534;6.442;2022-10-17T08:26:39;5.72;;;3.70;;
62633;SDS011;48704;50.534;6.442;2022-10-17T08:29:04;12.20;;;4.93;;
62633;SDS011;48704;50.534;6.442;2022-10-17T08:31:30;7.10;;;3.63;;
62633;SDS011;48704;50.534;6.442;2022-10-17T08:33:55;8.68;;;4.35;;
62633;SDS011;48704;50.534;6.442;2022-10-17T08:36:20;7.57;;;3.90;;
62633;SDS011;48704;50.534;6.442;2022-10-17T08:38:46;5.55;;;4.13;;
62633;SDS011;48704;50.534;6.442;2022-10-17T08:46:44;9.85;;;4.75;;
62633;SDS011;48704;50.534;6.442;2022-10-17T08:49:14;7.00;;;3.88;;
62633;SDS011;48704;50.534;6.442;2022-10-17T08:51:48;10.52;;;4.32;;
62633;SDS011;48704;50.534;6.442;2022-10-17T08:56:49;6.50;;;4.75;;
62633;SDS011;48704;50.534;6.442;2022-10-17T08:59:26;8.15;;;4.25;;
62633;SDS011;48704;50.534;6.442;2022-10-17T09:07:49;8.35;;;4.25;;
62633;SDS011;48704;50.534;6.442;2022-10-17T09:10:34;8.13;;;4.28;;
62633;SDS011;48704;50.534;6.442;2022-10-17T09:13:15;7.10;;;4.03;;
62633;SDS011;48704;50.534;6.442;2022-10-17T09:16:04;5.32;;;4.00;;
62633;SDS011;48704;50.534;6.442;2022-10-17T09:18:42;8.68;;;4.68;;
62633;SDS011;48704;50.534;6.442;2022-10-17T09:21:16;9.43;;;4.63;;
62633;SDS011;48704;50.534;6.442;2022-10-17T09:23:50;9.40;;;4.30;;
62633;SDS011;48704;50.534;6.442;2022-10-17T09:26:19;11.40;;;4.05;;
62633;SDS011;48704;50.534;6.442;2022-10-17T09:28:46;10.77;;;4.35;;
62633;SDS011;48704;50.534;6.442;2022-10-17T09:31:39;5.90;;;4.22;;
62633;SDS011;48704;50.534;6.442;2022-10-17T09:34:09;7.38;;;4.10;;
62633;SDS011;48704;50.534;6.442;2022-10-17T09:36:36;6.80;;;3.90;;
62633;SDS011;48704;50.534;6.442;2022-10-17T09:39:04;6.32;;;3.55;;
62633;SDS011;48704;50.534;6.442;2022-10-17T09:41:38;5.70;;;3.80;;
62633;SDS011;48704;50.534;6.442;2022-10-17T09:44:14;6.20;;;3.83;;
62633;SDS011;48704;50.534;6.442;2022-10-17T09:46:45;5.82;;;3.42;;
62633;SDS011;48704;50.534;6.442;2022-10-17T09:49:18;9.80;;;3.58;;
62633;SDS011;48704;50.534;6.442;2022-10-17T09:51:49;8.93;;;3.92;;
62633;SDS011;48704;50.534;6.442;2022-10-17T09:54:25;9.15;;;3.70;;
62633;SDS011;48704;50.534;6.442;2022-10-17T09:56:59;5.82;;;3.20;;
62633;SDS011;48704;50.534;6.442;2022-10-17T09:59:42;9.30;;;4.07;;
62633;SDS011;48704;50.534;6.442;2022-10-17T10:02:17;7.82;;;3.42;;
62633;SDS011;48704;50.534;6.442;2022-10-17T10:07:39;4.88;;;4.10;;
62633;SDS011;48704;50.534;6.442;2022-10-17T10:10:06;6.47;;;3.40;;
62633;SDS011;48704;50.534;6.442;2022-10-17T10:12:46;9.55;;;3.92;;
62633;SDS011;48704;50.534;6.442;2022-10-17T10:15:31;7.05;;;4.05;;
62633;SDS011;48704;50.534;6.442;2022-10-17T10:18:00;10.63;;;3.97;;
62633;SDS011;48704;50.534;6.442;2022-10-17T10:20:28;10.60;;;4.07;;
62633;SDS011;48704;50.534;6.442;2022-10-17T10:25:45;6.95;;;3.63;;
62633;SDS011;48704;50.534;6.442;2022-10-17T10:28:14;8.45;;;3.95;;
62633;SDS011;48704;50.534;6.442;2022-10-17T10:30:44;8.05;;;4.40;;
62633;SDS011;48704;50.534;6.442;2022-10-17T10:33:12;6.95;;;4.35;;
62633;SDS011;48704;50.534;6.442;2022-10-17T10:35:37;9.80;;;4.43;;
62633;SDS011;48704;50.534;6.442;2022-10-17T10:38:07;10.63;;;4.60;;
62633;SDS011;48704;50.534;6.442;2022-10-17T10:40:37;7.63;;;3.67;;
62633;SDS011;48704;50.534;6.442;2022-10-17T10:43:16;7.22;;;3.88;;
62633;SDS011;48704;50.534;6.442;2022-10-17T10:45:47;6.35;;;3.55;;
62633;SDS011;48704;50.534;6.442;2022-10-17T10:48:18;8.20;;;4.75;;
62633;SDS011;48704;50.534;6.442;2022-10-17T10:50:59;7.70;;;3.80;;
62633;SDS011;48704;50.534;6.442;2022-10-17T10:53:28;11.55;;;4.55;;
62633;SDS011;48704;50.534;6.442;2022-10-17T10:56:20;6.50;;;4.10;;
62633;SDS011;48704;50.534;6.442;2022-10-17T11:07:06;7.68;;;4.10;;
62633;SDS011;48704;50.534;6.442;2022-10-17T11:15:19;8.77;;;3.28;;
62633;SDS011;48704;50.534;6.442;2022-10-17T11:17:59;10.27;;;3.17;;
62633;SDS011;48704;50.534;6.442;2022-10-17T11:20:33;6.07;;;3.05;;
62633;SDS011;48704;50.534;6.442;2022-10-17T11:23:16;10.85;;;3.17;;
62633;SDS011;48704;50.534;6.442;2022-10-17T11:25:54;7.78;;;3.42;;
62633;SDS011;48704;50.534;6.442;2022-10-17T11:28:23;6.53;;;3.35;;
62633;SDS011;48704;50.534;6.442;2022-10-17T11:33:28;5.38;;;3.10;;
62633;SDS011;48704;50.534;6.442;2022-10-17T11:36:02;6.63;;;3.47;;
62633;SDS011;48704;50.534;6.442;2022-10-17T11:41:09;9.05;;;3.17;;
62633;SDS011;48704;50.534;6.442;2022-10-17T11:44:25;7.60;;;3.03;;
62633;SDS011;48704;50.534;6.442;2022-10-17T11:46:44;6.75;;;3.28;;
62633;SDS011;48704;50.534;6.442;2022-10-17T11:49:14;6.30;;;3.03;;
62633;SDS011;48704;50.534;6.442;2022-10-17T11:52:07;8.95;;;3.08;;
62633;SDS011;48704;50.534;6.442;2022-10-17T11:54:49;7.80;;;3.20;;
62633;SDS011;48704;50.534;6.442;2022-10-17T11:57:38;8.68;;;3.03;;
62633;SDS011;48704;50.534;6.442;2022-10-17T12:03:16;7.07;;;2.72;;
62633;SDS011;48704;50.534;6.442;2022-10-17T12:08:29;6.72;;;3.10;;
62633;SDS011;48704;50.534;6.442;2022-10-17T12:11:04;9.30;;;3.05;;
62633;SDS011;48704;50.534;6.442;2022-10-17T12:16:50;5.50;;;2.42;;
62633;SDS011;48704;50.534;6.442;2022-10-17T12:21:25;8.40;;;2.90;;
62633;SDS011;48704;50.534;6.442;2022-10-17T12:23:52;8.05;;;2.05;;
62633;SDS011;48704;50.534;6.442;2022-10-17T12:26:25;5.50;;;2.45;;
62633;SDS011;48704;50.534;6.442;2022-10-17T12:28:52;5.63;;;2.72;;
62633;SDS011;48704;50.534;6.442;2022-10-17T12:38:45;13.38;;;3.05;;
62633;SDS011;48704;50.534;6.442;2022-10-17T12:41:13;6.00;;;2.30;;
62633;SDS011;48704;50.534;6.442;2022-10-17T12:43:51;5.68;;;2.53;;
62633;SDS011;48704;50.534;6.442;2022-10-17T12:46:40;6.53;;;2.10;;
62633;SDS011;48704;50.534;6.442;2022-10-17T12:49:18;5.95;;;1.77;;
62633;SDS011;48704;50.534;6.442;2022-10-17T12:54:45;5.65;;;1.90;;
62633;SDS011;48704;50.534;6.442;2022-10-17T12:57:18;4.90;;;1.85;;
62633;SDS011;48704;50.534;6.442;2022-10-17T12:59:44;5.60;;;2.25;;
62633;SDS011;48704;50.534;6.442;2022-10-17T13:02:13;6.88;;;2.55;;
62633;SDS011;48704;50.534;6.442;2022-10-17T13:04:44;7.05;;;2.10;;
62633;SDS011;48704;50.534;6.442;2022-10-17T13:07:15;6.57;;;2.63;;
62633;SDS011;48704;50.534;6.442;2022-10-17T13:09:43;6.57;;;2.20;;
62633;SDS011;48704;50.534;6.442;2022-10-17T13:12:13;8.02;;;2.42;;
62633;SDS011;48704;50.534;6.442;2022-10-17T13:14:45;5.90;;;1.95;;
62633;SDS011;48704;50.534;6.442;2022-10-17T13:17:22;4.85;;;2.10;;
62633;SDS011;48704;50.534;6.442;2022-10-17T13:19:52;7.47;;;2.67;;
62633;SDS011;48704;50.534;6.442;2022-10-17T13:22:20;5.93;;;2.05;;
62633;SDS011;48704;50.534;6.442;2022-10-17T13:24:48;6.25;;;2.63;;
62633;SDS011;48704;50.534;6.442;2022-10-17T13:29:51;9.02;;;2.40;;
62633;SDS011;48704;50.534;6.442;2022-10-17T13:32:16;7.07;;;2.85;;
62633;SDS011;48704;50.534;6.442;2022-10-17T13:34:42;5.20;;;2.10;;
62633;SDS011;48704;50.534;6.442;2022-10-17T13:37:10;7.97;;;2.60;;
62633;SDS011;48704;50.534;6.442;2022-10-17T13:39:43;7.30;;;2.28;;
62633;SDS011;48704;50.534;6.442;2022-10-17T13:42:20;6.55;;;2.22;;
62633;SDS011;48704;50.534;6.442;2022-10-17T13:44:49;7.30;;;2.25;;
62633;SDS011;48704;50.534;6.442;2022-10-17T13:47:22;5.45;;;2.33;;
62633;SDS011;48704;50.534;6.442;2022-10-17T13:49:49;9.27;;;2.05;;
62633;SDS011;48704;50.534;6.442;2022-10-17T13:52:19;4.45;;;2.00;;
62633;SDS011;48704;50.534;6.442;2022-10-17T13:54:47;6.68;;;2.70;;
62633;SDS011;48704;50.534;6.442;2022-10-17T13:57:28;5.50;;;2.15;;
62633;SDS011;48704;50.534;6.442;2022-10-17T13:59:56;5.50;;;2.42;;
62633;SDS011;48704;50.534;6.442;2022-10-17T14:02:27;9.43;;;2.42;;
62633;SDS011;48704;50.534;6.442;2022-10-17T14:07:43;6.57;;;2.28;;
62633;SDS011;48704;50.534;6.442;2022-10-17T14:10:20;7.85;;;2.25;;
62633;SDS011;48704;50.534;6.442;2022-10-17T14:12:54;7.70;;;2.42;;
62633;SDS011;48704;50.534;6.442;2022-10-17T14:15:21;7.53;;;3.13;;
62633;SDS011;48704;50.534;6.442;2022-10-17T14:17:53;7.43;;;2.22;;
62633;SDS011;48704;50.534;6.442;2022-10-17T14:20:24;7.88;;;2.22;;
62633;SDS011;48704;50.534;6.442;2022-10-17T14:22:56;6.82;;;2.10;;
62633;SDS011;48704;50.534;6.442;2022-10-17T14:25:36;5.50;;;2.47;;
62633;SDS011;48704;50.534;6.442;2022-10-17T14:30:34;6.85;;;2.40;;
62633;SDS011;48704;50.534;6.442;2022-10-17T14:33:16;7.07;;;2.67;;
62633;SDS011;48704;50.534;6.442;2022-10-17T14:35:50;6.43;;;2.40;;
62633;SDS011;48704;50.534;6.442;2022-10-17T14:38:17;5.25;;;2.20;;
62633;SDS011;48704;50.534;6.442;2022-10-17T14:40:54;6.50;;;2.63;;
62633;SDS011;48704;50.534;6.442;2022-10-17T14:43:24;7.35;;;2.65;;
62633;SDS011;48704;50.534;6.442;2022-10-17T14:45:52;8.15;;;2.33;;
62633;SDS011;48704;50.534;6.442;2022-10-17T14:48:21;9.05;;;2.50;;
62633;SDS011;48704;50.534;6.442;2022-10-17T14:53:38;9.43;;;3.13;;
62633;SDS011;48704;50.534;6.442;2022-10-17T14:56:19;7.03;;;2.63;;
62633;SDS011;48704;50.534;6.442;2022-10-17T14:58:49;5.22;;;2.50;;
62633;SDS011;48704;50.534;6.442;2022-10-17T15:01:14;8.02;;;2.67;;
62633;SDS011;48704;50.534;6.442;2022-10-17T15:03:39;5.15;;;2.50;;
62633;SDS011;48704;50.534;6.442;2022-10-17T15:06:16;5.35;;;2.40;;
62633;SDS011;48704;50.534;6.442;2022-10-17T15:08:43;7.00;;;2.70;;
62633;SDS011;48704;50.534;6.442;2022-10-17T15:11:10;6.10;;;2.53;;
62633;SDS011;48704;50.534;6.442;2022-10-17T15:13:36;7.18;;;2.65;;
62633;SDS011;48704;50.534;6.442;2022-10-17T15:16:04;9.23;;;2.63;;
62633;SDS011;48704;50.534;6.442;2022-10-17T15:18:37;4.88;;;2.40;;
62633;SDS011;48704;50.534;6.442;2022-10-17T15:21:05;6.65;;;2.60;;
62633;SDS011;48704;50.534;6.442;2022-10-17T15:23:35;6.00;;;2.72;;
62633;SDS011;48704;50.534;6.442;2022-10-17T15:26:00;5.32;;;3.20;;
62633;SDS011;48704;50.534;6.442;2022-10-17T15:28:26;7.07;;;2.53;;
62633;SDS011;48704;50.534;6.442;2022-10-17T15:30:51;8.68;;;2.60;;
62633;SDS011;48704;50.534;6.442;2022-10-17T15:33:16;9.05;;;2.80;;
62633;SDS011;48704;50.534;6.442;2022-10-17T15:35:41;7.97;;;2.75;;
62633;SDS011;48704;50.534;6.442;2022-10-17T15:38:07;13.15;;;3.42;;
62633;SDS011;48704;50.534;6.442;2022-10-17T15:40:32;11.90;;;3.00;;
62633;SDS011;48704;50.534;6.442;2022-10-17T15:42:58;7.90;;;2.95;;
62633;SDS011;48704;50.534;6.442;2022-10-17T15:45:23;7.80;;;2.65;;
62633;SDS011;48704;50.534;6.442;2022-10-17T15:47:55;7.60;;;2.78;;
62633;SDS011;48704;50.534;6.442;2022-10-17T15:50:29;10.10;;;2.80;;
62633;SDS011;48704;50.534;6.442;2022-10-17T15:52:55;5.82;;;2.63;;
62633;SDS011;48704;50.534;6.442;2022-10-17T15:55:20;5.65;;;3.10;;
62633;SDS011;48704;50.534;6.442;2022-10-17T15:57:46;8.75;;;3.20;;
62633;SDS011;48704;50.534;6.442;2022-10-17T16:00:20;6.18;;;2.75;;
62633;SDS011;48704;50.534;6.442;2022-10-17T16:02:47;6.75;;;3.05;;
62633;SDS011;48704;50.534;6.442;2022-10-17T16:05:15;8.30;;;3.20;;
62633;SDS011;48704;50.534;6.442;2022-10-17T16:07:43;6.93;;;3.15;;
62633;SDS011;48704;50.534;6.442;2022-10-17T16:10:10;7.30;;;3.17;;
62633;SDS011;48704;50.534;6.442;2022-10-17T16:12:37;6.53;;;3.20;;
62633;SDS011;48704;50.534;6.442;2022-10-17T16:15:05;9.60;;;3.45;;
62633;SDS011;48704;50.534;6.442;2022-10-17T16:17:31;5.97;;;3.03;;
62633;SDS011;48704;50.534;6.442;2022-10-17T16:19:57;8.02;;;3.20;;
62633;SDS011;48704;50.534;6.442;2022-10-17T16:22:28;10.43;;;2.88;;
62633;SDS011;48704;50.534;6.442;2022-10-17T16:25:00;9.38;;;3.60;;
62633;SDS011;48704;50.534;6.442;2022-10-17T16:30:03;11.27;;;3.38;;
62633;SDS011;48704;50.534;6.442;2022-10-17T16:32:30;7.85;;;3.10;;
62633;SDS011;48704;50.534;6.442;2022-10-17T16:34:56;7.22;;;3.08;;
62633;SDS011;48704;50.534;6.442;2022-10-17T16:37:23;5.13;;;3.00;;
62633;SDS011;48704;50.534;6.442;2022-10-17T16:39:49;6.90;;;3.13;;
62633;SDS011;48704;50.534;6.442;2022-10-17T16:42:16;9.23;;;3.63;;
62633;SDS011;48704;50.534;6.442;2022-10-17T16:44:42;9.02;;;3.05;;